sensor_id;sensor_type;location;lat;lon;timestamp;P1;durP1;ratioP1;P2;durP2;ratioP2
21751;SDS011;11038;50.940;20.564;2022-09-09T00:00:20;488.40;;;111.60;;
21751;SDS011;11038;50.940;20.564;2022-09-09T00:45:09;1779.30;;;157.53;;
21751;SDS011;11038;50.940;20.564;2022-09-09T00:52:31;1176.23;;;116.60;;
21751;SDS011;11038;50.940;20.564;2022-09-09T00:54:27;155.63;;;72.10;;
21751;SDS011;11038;50.940;20.564;2022-09-09T01:21:42;105.87;;;61.33;;
21751;SDS011;11038;50.940;20.564;2022-09-09T01:43:29;59.30;;;37.50;;
21751;SDS011;11038;50.940;20.564;2022-09-09T06:04:15;15.03;;;12.60;;
21751;SDS011;11038;50.940;20.564;2022-09-09T06:05:47;15.90;;;13.30;;
21751;SDS011;11038;50.940;20.564;2022-09-09T06:07:34;18.40;;;14.57;;
21751;SDS011;11038;50.940;20.564;2022-09-09T06:09:07;16.63;;;13.83;;
21751;SDS011;11038;50.940;20.564;2022-09-09T06:10:41;15.43;;;13.67;;
21751;SDS011;11038;50.940;20.564;2022-09-09T06:18:26;18.03;;;15.40;;
21751;SDS011;11038;50.940;20.564;2022-09-09T06:19:58;17.05;;;14.55;;
21751;SDS011;11038;50.940;20.564;2022-09-09T07:21:24;11.30;;;8.45;;
21751;SDS011;11038;50.940;20.564;2022-09-09T07:22:58;12.18;;;8.73;;
21751;SDS011;11038;50.940;20.564;2022-09-09T07:24:30;12.60;;;8.07;;
21751;SDS011;11038;50.940;20.564;2022-09-09T09:29:32;7.25;;;4.70;;
21751;SDS011;11038;50.940;20.564;2022-09-09T09:31:26;5.88;;;4.13;;
21751;SDS011;11038;50.940;20.564;2022-09-09T09:34:34;7.63;;;4.55;;
21751;SDS011;11038;50.940;20.564;2022-09-09T09:36:07;6.13;;;4.50;;
21751;SDS011;11038;50.940;20.564;2022-09-09T09:37:40;7.47;;;4.20;;
21751;SDS011;11038;50.940;20.564;2022-09-09T09:39:35;8.52;;;4.40;;
21751;SDS011;11038;50.940;20.564;2022-09-09T09:41:49;6.80;;;4.47;;
21751;SDS011;11038;50.940;20.564;2022-09-09T09:43:32;6.60;;;4.57;;
21751;SDS011;11038;50.940;20.564;2022-09-09T09:45:15;6.15;;;4.03;;
21751;SDS011;11038;50.940;20.564;2022-09-09T09:47:07;5.70;;;3.88;;
21751;SDS011;11038;50.940;20.564;2022-09-09T09:49:01;6.13;;;4.10;;
21751;SDS011;11038;50.940;20.564;2022-09-09T09:50:47;7.13;;;3.95;;
21751;SDS011;11038;50.940;20.564;2022-09-09T09:52:25;5.43;;;3.83;;
21751;SDS011;11038;50.940;20.564;2022-09-09T09:55:47;5.60;;;4.05;;
21751;SDS011;11038;50.940;20.564;2022-09-09T09:57:30;8.00;;;4.53;;
21751;SDS011;11038;50.940;20.564;2022-09-09T09:59:04;5.70;;;4.05;;
21751;SDS011;11038;50.940;20.564;2022-09-09T10:00:54;5.15;;;4.25;;
21751;SDS011;11038;50.940;20.564;2022-09-09T10:02:31;6.15;;;4.18;;
21751;SDS011;11038;50.940;20.564;2022-09-09T10:04:21;7.30;;;3.92;;
21751;SDS011;11038;50.940;20.564;2022-09-09T10:05:57;6.05;;;3.83;;
21751;SDS011;11038;50.940;20.564;2022-09-09T10:07:29;5.82;;;4.15;;
21751;SDS011;11038;50.940;20.564;2022-09-09T10:09:03;6.30;;;4.30;;
21751;SDS011;11038;50.940;20.564;2022-09-09T10:13:03;5.55;;;4.43;;
21751;SDS011;11038;50.940;20.564;2022-09-09T10:20:19;6.75;;;4.20;;
21751;SDS011;11038;50.940;20.564;2022-09-09T10:22:25;7.28;;;4.93;;
21751;SDS011;11038;50.940;20.564;2022-09-09T10:26:16;5.40;;;4.15;;
21751;SDS011;11038;50.940;20.564;2022-09-09T10:36:46;10.05;;;4.20;;
21751;SDS011;11038;50.940;20.564;2022-09-09T10:42:12;5.57;;;3.90;;
21751;SDS011;11038;50.940;20.564;2022-09-09T10:52:38;5.55;;;4.15;;
21751;SDS011;11038;50.940;20.564;2022-09-09T10:56:06;7.88;;;3.55;;
21751;SDS011;11038;50.940;20.564;2022-09-09T10:58:04;5.57;;;4.00;;
21751;SDS011;11038;50.940;20.564;2022-09-09T10:59:42;6.15;;;4.15;;
21751;SDS011;11038;50.940;20.564;2022-09-09T11:01:27;5.75;;;3.97;;
21751;SDS011;11038;50.940;20.564;2022-09-09T11:03:20;10.65;;;4.53;;
21751;SDS011;11038;50.940;20.564;2022-09-09T11:05:08;6.65;;;4.00;;
21751;SDS011;11038;50.940;20.564;2022-09-09T11:07:24;7.70;;;3.88;;
21751;SDS011;11038;50.940;20.564;2022-09-09T11:09:28;5.40;;;3.63;;
21751;SDS011;11038;50.940;20.564;2022-09-09T11:11:11;7.20;;;4.82;;
21751;SDS011;11038;50.940;20.564;2022-09-09T11:12:54;9.18;;;4.22;;
21751;SDS011;11038;50.940;20.564;2022-09-09T11:18:34;5.93;;;3.85;;
21751;SDS011;11038;50.940;20.564;2022-09-09T11:20:14;6.22;;;3.92;;
21751;SDS011;11038;50.940;20.564;2022-09-09T11:21:48;5.05;;;3.72;;
21751;SDS011;11038;50.940;20.564;2022-09-09T11:23:27;6.78;;;3.10;;
21751;SDS011;11038;50.940;20.564;2022-09-09T11:33:26;4.68;;;3.10;;
21751;SDS011;11038;50.940;20.564;2022-09-09T11:40:04;7.53;;;3.63;;
21751;SDS011;11038;50.940;20.564;2022-09-09T11:41:50;5.32;;;3.55;;
21751;SDS011;11038;50.940;20.564;2022-09-09T11:45:21;11.88;;;3.70;;
21751;SDS011;11038;50.940;20.564;2022-09-09T11:47:00;8.43;;;3.50;;
21751;SDS011;11038;50.940;20.564;2022-09-09T11:48:45;5.72;;;3.30;;
21751;SDS011;11038;50.940;20.564;2022-09-09T11:50:33;8.55;;;3.42;;
21751;SDS011;11038;50.940;20.564;2022-09-09T11:52:18;5.93;;;3.38;;
21751;SDS011;11038;50.940;20.564;2022-09-09T11:54:28;9.68;;;3.25;;
21751;SDS011;11038;50.940;20.564;2022-09-09T11:56:09;5.43;;;3.47;;
21751;SDS011;11038;50.940;20.564;2022-09-09T11:57:46;9.57;;;3.40;;
21751;SDS011;11038;50.940;20.564;2022-09-09T11:59:24;5.25;;;3.20;;
21751;SDS011;11038;50.940;20.564;2022-09-09T12:01:00;5.30;;;3.58;;
21751;SDS011;11038;50.940;20.564;2022-09-09T12:02:33;7.03;;;4.22;;
21751;SDS011;11038;50.940;20.564;2022-09-09T12:06:08;4.93;;;3.15;;
21751;SDS011;11038;50.940;20.564;2022-09-09T12:08:16;28.08;;;4.60;;
21751;SDS011;11038;50.940;20.564;2022-09-09T12:12:16;7.28;;;3.70;;
21751;SDS011;11038;50.940;20.564;2022-09-09T12:14:18;13.45;;;3.60;;
21751;SDS011;11038;50.940;20.564;2022-09-09T12:16:27;11.15;;;3.53;;
21751;SDS011;11038;50.940;20.564;2022-09-09T12:18:14;23.58;;;4.00;;
21751;SDS011;11038;50.940;20.564;2022-09-09T12:21:49;10.95;;;3.53;;
21751;SDS011;11038;50.940;20.564;2022-09-09T12:23:48;8.80;;;3.55;;
21751;SDS011;11038;50.940;20.564;2022-09-09T12:27:36;5.88;;;3.20;;
21751;SDS011;11038;50.940;20.564;2022-09-09T12:29:26;13.73;;;3.63;;
21751;SDS011;11038;50.940;20.564;2022-09-09T12:31:25;6.90;;;3.47;;
21751;SDS011;11038;50.940;20.564;2022-09-09T12:33:39;5.50;;;3.60;;
21751;SDS011;11038;50.940;20.564;2022-09-09T12:35:19;6.97;;;3.60;;
21751;SDS011;11038;50.940;20.564;2022-09-09T12:37:03;5.50;;;3.60;;
21751;SDS011;11038;50.940;20.564;2022-09-09T12:39:18;7.10;;;4.07;;
21751;SDS011;11038;50.940;20.564;2022-09-09T12:41:18;4.97;;;3.40;;
21751;SDS011;11038;50.940;20.564;2022-09-09T12:42:57;6.13;;;3.58;;
21751;SDS011;11038;50.940;20.564;2022-09-09T12:44:33;4.10;;;2.88;;
21751;SDS011;11038;50.940;20.564;2022-09-09T12:46:08;5.78;;;3.22;;
21751;SDS011;11038;50.940;20.564;2022-09-09T12:48:02;6.20;;;3.35;;
21751;SDS011;11038;50.940;20.564;2022-09-09T12:49:43;6.97;;;3.40;;
21751;SDS011;11038;50.940;20.564;2022-09-09T12:51:17;5.82;;;3.30;;
21751;SDS011;11038;50.940;20.564;2022-09-09T12:52:59;4.75;;;3.20;;
21751;SDS011;11038;50.940;20.564;2022-09-09T12:54:57;5.68;;;3.55;;
21751;SDS011;11038;50.940;20.564;2022-09-09T12:56:33;6.40;;;3.45;;
21751;SDS011;11038;50.940;20.564;2022-09-09T12:58:07;7.38;;;3.22;;
21751;SDS011;11038;50.940;20.564;2022-09-09T12:59:46;4.25;;;3.00;;
21751;SDS011;11038;50.940;20.564;2022-09-09T13:03:02;5.55;;;3.25;;
21751;SDS011;11038;50.940;20.564;2022-09-09T13:04:48;5.18;;;3.42;;
21751;SDS011;11038;50.940;20.564;2022-09-09T13:06:23;5.97;;;3.28;;
21751;SDS011;11038;50.940;20.564;2022-09-09T13:08:04;4.43;;;2.97;;
21751;SDS011;11038;50.940;20.564;2022-09-09T13:09:41;6.03;;;3.30;;
21751;SDS011;11038;50.940;20.564;2022-09-09T13:11:17;7.35;;;3.47;;
21751;SDS011;11038;50.940;20.564;2022-09-09T13:13:01;6.65;;;3.42;;
21751;SDS011;11038;50.940;20.564;2022-09-09T13:14:35;5.18;;;3.47;;
21751;SDS011;11038;50.940;20.564;2022-09-09T13:16:19;5.10;;;3.50;;
21751;SDS011;11038;50.940;20.564;2022-09-09T13:18:13;6.15;;;3.42;;
21751;SDS011;11038;50.940;20.564;2022-09-09T13:19:46;5.00;;;3.20;;
21751;SDS011;11038;50.940;20.564;2022-09-09T13:21:30;10.68;;;3.50;;
21751;SDS011;11038;50.940;20.564;2022-09-09T13:23:09;6.65;;;3.15;;
21751;SDS011;11038;50.940;20.564;2022-09-09T13:24:44;4.28;;;3.00;;
21751;SDS011;11038;50.940;20.564;2022-09-09T13:26:21;4.90;;;3.22;;
21751;SDS011;11038;50.940;20.564;2022-09-09T13:29:34;6.60;;;3.35;;
21751;SDS011;11038;50.940;20.564;2022-09-09T13:31:32;4.57;;;3.15;;
21751;SDS011;11038;50.940;20.564;2022-09-09T13:34:56;5.80;;;3.15;;
21751;SDS011;11038;50.940;20.564;2022-09-09T13:36:33;4.30;;;2.90;;
21751;SDS011;11038;50.940;20.564;2022-09-09T13:38:07;5.80;;;3.55;;
21751;SDS011;11038;50.940;20.564;2022-09-09T13:39:50;6.72;;;3.72;;
21751;SDS011;11038;50.940;20.564;2022-09-09T13:41:26;5.22;;;3.08;;
21751;SDS011;11038;50.940;20.564;2022-09-09T13:43:05;7.25;;;3.33;;
21751;SDS011;11038;50.940;20.564;2022-09-09T13:44:50;6.18;;;3.58;;
21751;SDS011;11038;50.940;20.564;2022-09-09T13:48:08;7.15;;;3.60;;
21751;SDS011;11038;50.940;20.564;2022-09-09T13:53:29;7.68;;;4.00;;
21751;SDS011;11038;50.940;20.564;2022-09-09T13:56:55;7.43;;;3.55;;
21751;SDS011;11038;50.940;20.564;2022-09-09T14:08:24;10.10;;;4.65;;
21751;SDS011;11038;50.940;20.564;2022-09-09T14:12:14;6.00;;;3.95;;
21751;SDS011;11038;50.940;20.564;2022-09-09T14:15:59;5.70;;;3.60;;
21751;SDS011;11038;50.940;20.564;2022-09-09T14:19:52;5.23;;;3.70;;
21751;SDS011;11038;50.940;20.564;2022-09-09T14:21:31;5.47;;;3.65;;
21751;SDS011;11038;50.940;20.564;2022-09-09T14:23:27;5.68;;;3.70;;
21751;SDS011;11038;50.940;20.564;2022-09-09T14:25:08;10.30;;;3.58;;
21751;SDS011;11038;50.940;20.564;2022-09-09T14:26:55;6.10;;;3.67;;
21751;SDS011;11038;50.940;20.564;2022-09-09T14:28:41;5.63;;;3.50;;
21751;SDS011;11038;50.940;20.564;2022-09-09T14:30:26;5.32;;;3.50;;
21751;SDS011;11038;50.940;20.564;2022-09-09T14:32:01;5.78;;;3.60;;
21751;SDS011;11038;50.940;20.564;2022-09-09T14:33:40;5.63;;;3.25;;
21751;SDS011;11038;50.940;20.564;2022-09-09T14:35:18;6.25;;;3.67;;
21751;SDS011;11038;50.940;20.564;2022-09-09T14:36:53;4.72;;;3.13;;
21751;SDS011;11038;50.940;20.564;2022-09-09T14:38:28;4.85;;;3.70;;
21751;SDS011;11038;50.940;20.564;2022-09-09T14:40:03;5.18;;;3.80;;
21751;SDS011;11038;50.940;20.564;2022-09-09T14:41:50;4.85;;;3.30;;
21751;SDS011;11038;50.940;20.564;2022-09-09T14:43:39;5.45;;;3.47;;
21751;SDS011;11038;50.940;20.564;2022-09-09T14:45:18;6.95;;;3.88;;
21751;SDS011;11038;50.940;20.564;2022-09-09T14:46:50;5.43;;;3.60;;
21751;SDS011;11038;50.940;20.564;2022-09-09T14:48:38;5.82;;;3.80;;
21751;SDS011;11038;50.940;20.564;2022-09-09T14:50:19;5.57;;;3.67;;
21751;SDS011;11038;50.940;20.564;2022-09-09T14:51:59;5.97;;;3.50;;
21751;SDS011;11038;50.940;20.564;2022-09-09T14:53:41;6.78;;;3.25;;
21751;SDS011;11038;50.940;20.564;2022-09-09T14:55:21;5.50;;;3.30;;
21751;SDS011;11038;50.940;20.564;2022-09-09T14:57:02;5.95;;;3.30;;
21751;SDS011;11038;50.940;20.564;2022-09-09T14:58:41;7.93;;;3.80;;
21751;SDS011;11038;50.940;20.564;2022-09-09T15:00:20;5.13;;;3.40;;
21751;SDS011;11038;50.940;20.564;2022-09-09T15:02:03;7.43;;;3.97;;
21751;SDS011;11038;50.940;20.564;2022-09-09T15:03:54;6.20;;;3.55;;
21751;SDS011;11038;50.940;20.564;2022-09-09T15:05:40;5.25;;;3.50;;
21751;SDS011;11038;50.940;20.564;2022-09-09T15:07:20;7.10;;;3.33;;
21751;SDS011;11038;50.940;20.564;2022-09-09T15:09:00;5.85;;;3.90;;
21751;SDS011;11038;50.940;20.564;2022-09-09T15:10:39;7.57;;;4.30;;
21751;SDS011;11038;50.940;20.564;2022-09-09T15:12:19;7.72;;;3.75;;
21751;SDS011;11038;50.940;20.564;2022-09-09T15:13:57;7.50;;;3.85;;
21751;SDS011;11038;50.940;20.564;2022-09-09T15:15:35;7.50;;;3.97;;
21751;SDS011;11038;50.940;20.564;2022-09-09T15:17:15;7.07;;;3.97;;
21751;SDS011;11038;50.940;20.564;2022-09-09T15:18:55;6.57;;;4.20;;
21751;SDS011;11038;50.940;20.564;2022-09-09T15:20:36;5.80;;;4.05;;
21751;SDS011;11038;50.940;20.564;2022-09-09T15:22:20;10.68;;;4.80;;
21751;SDS011;11038;50.940;20.564;2022-09-09T15:23:59;11.77;;;5.05;;
21751;SDS011;11038;50.940;20.564;2022-09-09T15:25:49;10.27;;;5.03;;
21751;SDS011;11038;50.940;20.564;2022-09-09T15:27:30;9.55;;;5.47;;
21751;SDS011;11038;50.940;20.564;2022-09-09T15:29:08;11.25;;;5.57;;
21751;SDS011;11038;50.940;20.564;2022-09-09T15:30:50;10.27;;;5.60;;
21751;SDS011;11038;50.940;20.564;2022-09-09T15:32:30;11.93;;;5.90;;
21751;SDS011;11038;50.940;20.564;2022-09-09T15:34:09;10.32;;;5.32;;
21751;SDS011;11038;50.940;20.564;2022-09-09T15:35:47;10.30;;;5.60;;
21751;SDS011;11038;50.940;20.564;2022-09-09T15:37:26;9.02;;;5.32;;
21751;SDS011;11038;50.940;20.564;2022-09-09T15:39:06;11.32;;;5.57;;
21751;SDS011;11038;50.940;20.564;2022-09-09T15:40:56;9.85;;;5.50;;
21751;SDS011;11038;50.940;20.564;2022-09-09T15:42:41;9.32;;;5.40;;
21751;SDS011;11038;50.940;20.564;2022-09-09T15:44:41;8.85;;;5.72;;
21751;SDS011;11038;50.940;20.564;2022-09-09T15:48:40;15.40;;;5.47;;
21751;SDS011;11038;50.940;20.564;2022-09-09T15:50:29;9.25;;;5.75;;
21751;SDS011;11038;50.940;20.564;2022-09-09T15:52:17;10.93;;;6.00;;
21751;SDS011;11038;50.940;20.564;2022-09-09T15:53:58;9.02;;;6.22;;
21751;SDS011;11038;50.940;20.564;2022-09-09T15:55:39;9.98;;;6.78;;
21751;SDS011;11038;50.940;20.564;2022-09-09T15:57:20;11.35;;;6.45;;
21751;SDS011;11038;50.940;20.564;2022-09-09T15:59:06;10.23;;;7.03;;
21751;SDS011;11038;50.940;20.564;2022-09-09T16:00:51;10.00;;;7.00;;
21751;SDS011;11038;50.940;20.564;2022-09-09T16:02:34;8.87;;;7.00;;
21751;SDS011;11038;50.940;20.564;2022-09-09T16:04:15;13.10;;;8.43;;
21751;SDS011;11038;50.940;20.564;2022-09-09T16:06:04;15.20;;;9.07;;
21751;SDS011;11038;50.940;20.564;2022-09-09T16:07:44;13.90;;;8.73;;
21751;SDS011;11038;50.940;20.564;2022-09-09T16:09:24;15.10;;;9.20;;
21751;SDS011;11038;50.940;20.564;2022-09-09T16:11:07;13.80;;;9.20;;
21751;SDS011;11038;50.940;20.564;2022-09-09T16:12:52;12.57;;;8.17;;
21751;SDS011;11038;50.940;20.564;2022-09-09T16:14:49;13.03;;;7.93;;
21751;SDS011;11038;50.940;20.564;2022-09-09T16:16:31;12.17;;;7.90;;
21751;SDS011;11038;50.940;20.564;2022-09-09T16:18:41;11.83;;;8.70;;
21751;SDS011;11038;50.940;20.564;2022-09-09T16:20:27;13.33;;;9.10;;
21751;SDS011;11038;50.940;20.564;2022-09-09T16:22:11;12.07;;;9.10;;
21751;SDS011;11038;50.940;20.564;2022-09-09T16:23:53;13.43;;;9.10;;
21751;SDS011;11038;50.940;20.564;2022-09-09T16:25:39;11.77;;;9.30;;
21751;SDS011;11038;50.940;20.564;2022-09-09T16:27:19;14.07;;;8.40;;
21751;SDS011;11038;50.940;20.564;2022-09-09T16:28:58;11.47;;;8.07;;
21751;SDS011;11038;50.940;20.564;2022-09-09T16:30:40;13.63;;;9.93;;
21751;SDS011;11038;50.940;20.564;2022-09-09T16:32:20;13.60;;;9.17;;
21751;SDS011;11038;50.940;20.564;2022-09-09T16:34:03;13.43;;;9.77;;
21751;SDS011;11038;50.940;20.564;2022-09-09T16:35:48;13.23;;;9.97;;
21751;SDS011;11038;50.940;20.564;2022-09-09T16:37:45;13.43;;;9.73;;
21751;SDS011;11038;50.940;20.564;2022-09-09T16:39:28;12.97;;;9.53;;
21751;SDS011;11038;50.940;20.564;2022-09-09T16:41:10;12.87;;;8.83;;
21751;SDS011;11038;50.940;20.564;2022-09-09T16:42:52;13.57;;;8.83;;
21751;SDS011;11038;50.940;20.564;2022-09-09T16:44:32;11.43;;;8.97;;
21751;SDS011;11038;50.940;20.564;2022-09-09T16:46:17;14.40;;;9.80;;
21751;SDS011;11038;50.940;20.564;2022-09-09T16:48:09;13.63;;;9.37;;
21751;SDS011;11038;50.940;20.564;2022-09-09T16:49:51;19.97;;;10.00;;
21751;SDS011;11038;50.940;20.564;2022-09-09T16:51:31;14.80;;;9.73;;
21751;SDS011;11038;50.940;20.564;2022-09-09T16:53:14;14.87;;;9.63;;
21751;SDS011;11038;50.940;20.564;2022-09-09T16:54:57;14.23;;;9.90;;
21751;SDS011;11038;50.940;20.564;2022-09-09T16:56:41;15.27;;;9.40;;
21751;SDS011;11038;50.940;20.564;2022-09-09T16:58:22;15.60;;;9.97;;
21751;SDS011;11038;50.940;20.564;2022-09-09T17:00:03;13.10;;;9.77;;
21751;SDS011;11038;50.940;20.564;2022-09-09T17:01:45;13.90;;;10.47;;
21751;SDS011;11038;50.940;20.564;2022-09-09T17:03:27;14.07;;;10.73;;
21751;SDS011;11038;50.940;20.564;2022-09-09T17:05:09;15.97;;;11.03;;
21751;SDS011;11038;50.940;20.564;2022-09-09T17:07:10;14.30;;;11.20;;
21751;SDS011;11038;50.940;20.564;2022-09-09T17:08:57;15.97;;;11.20;;
21751;SDS011;11038;50.940;20.564;2022-09-09T17:10:42;16.93;;;12.13;;
21751;SDS011;11038;50.940;20.564;2022-09-09T17:12:22;15.43;;;12.30;;
21751;SDS011;11038;50.940;20.564;2022-09-09T17:14:07;16.03;;;11.60;;
21751;SDS011;11038;50.940;20.564;2022-09-09T17:15:53;17.97;;;13.03;;
21751;SDS011;11038;50.940;20.564;2022-09-09T17:17:42;21.57;;;12.53;;
21751;SDS011;11038;50.940;20.564;2022-09-09T17:19:23;16.80;;;12.33;;
21751;SDS011;11038;50.940;20.564;2022-09-09T17:23:04;19.07;;;13.13;;
21751;SDS011;11038;50.940;20.564;2022-09-09T17:24:46;18.47;;;11.90;;
21751;SDS011;11038;50.940;20.564;2022-09-09T17:26:29;16.33;;;11.87;;
21751;SDS011;11038;50.940;20.564;2022-09-09T17:28:08;16.17;;;11.33;;
21751;SDS011;11038;50.940;20.564;2022-09-09T17:30:09;17.83;;;11.67;;
21751;SDS011;11038;50.940;20.564;2022-09-09T17:31:51;19.00;;;12.40;;
21751;SDS011;11038;50.940;20.564;2022-09-09T17:33:32;18.33;;;12.77;;
21751;SDS011;11038;50.940;20.564;2022-09-09T17:35:13;20.90;;;13.43;;
21751;SDS011;11038;50.940;20.564;2022-09-09T17:36:52;17.63;;;13.03;;
21751;SDS011;11038;50.940;20.564;2022-09-09T17:38:31;20.63;;;13.67;;
21751;SDS011;11038;50.940;20.564;2022-09-09T17:40:09;17.70;;;12.80;;
21751;SDS011;11038;50.940;20.564;2022-09-09T17:41:48;20.07;;;12.27;;
21751;SDS011;11038;50.940;20.564;2022-09-09T17:43:28;19.20;;;13.23;;
21751;SDS011;11038;50.940;20.564;2022-09-09T17:45:07;19.13;;;14.10;;
21751;SDS011;11038;50.940;20.564;2022-09-09T17:46:46;20.30;;;13.93;;
21751;SDS011;11038;50.940;20.564;2022-09-09T17:48:24;19.83;;;14.37;;
21751;SDS011;11038;50.940;20.564;2022-09-09T17:50:05;18.27;;;13.50;;
21751;SDS011;11038;50.940;20.564;2022-09-09T17:51:46;17.93;;;12.63;;
21751;SDS011;11038;50.940;20.564;2022-09-09T17:53:24;17.70;;;13.43;;
21751;SDS011;11038;50.940;20.564;2022-09-09T17:55:04;18.83;;;14.23;;
21751;SDS011;11038;50.940;20.564;2022-09-09T17:56:43;22.47;;;12.17;;
21751;SDS011;11038;50.940;20.564;2022-09-09T17:58:23;21.27;;;14.60;;
21751;SDS011;11038;50.940;20.564;2022-09-09T18:00:03;18.03;;;12.77;;
21751;SDS011;11038;50.940;20.564;2022-09-09T18:01:45;19.50;;;13.13;;
21751;SDS011;11038;50.940;20.564;2022-09-09T18:03:24;21.87;;;13.73;;
21751;SDS011;11038;50.940;20.564;2022-09-09T18:05:02;25.23;;;16.10;;
21751;SDS011;11038;50.940;20.564;2022-09-09T18:06:42;22.63;;;16.00;;
21751;SDS011;11038;50.940;20.564;2022-09-09T18:08:25;21.87;;;16.00;;
21751;SDS011;11038;50.940;20.564;2022-09-09T18:10:09;24.80;;;15.43;;
21751;SDS011;11038;50.940;20.564;2022-09-09T18:11:48;21.63;;;15.67;;
21751;SDS011;11038;50.940;20.564;2022-09-09T18:13:34;21.77;;;16.77;;
21751;SDS011;11038;50.940;20.564;2022-09-09T18:15:12;25.90;;;15.90;;
21751;SDS011;11038;50.940;20.564;2022-09-09T18:17:11;22.10;;;15.97;;
21751;SDS011;11038;50.940;20.564;2022-09-09T18:18:49;25.43;;;16.33;;
21751;SDS011;11038;50.940;20.564;2022-09-09T18:20:28;21.73;;;16.47;;
21751;SDS011;11038;50.940;20.564;2022-09-09T18:22:07;23.83;;;15.97;;
21751;SDS011;11038;50.940;20.564;2022-09-09T18:23:46;24.70;;;17.00;;
21751;SDS011;11038;50.940;20.564;2022-09-09T18:25:25;25.23;;;16.67;;
21751;SDS011;11038;50.940;20.564;2022-09-09T18:27:03;24.93;;;16.83;;
21751;SDS011;11038;50.940;20.564;2022-09-09T18:28:42;25.17;;;16.77;;
21751;SDS011;11038;50.940;20.564;2022-09-09T18:30:26;26.00;;;17.47;;
21751;SDS011;11038;50.940;20.564;2022-09-09T18:32:04;25.53;;;16.90;;
21751;SDS011;11038;50.940;20.564;2022-09-09T18:33:43;26.97;;;17.17;;
21751;SDS011;11038;50.940;20.564;2022-09-09T18:35:23;25.67;;;17.57;;
21751;SDS011;11038;50.940;20.564;2022-09-09T18:37:01;26.87;;;17.27;;
21751;SDS011;11038;50.940;20.564;2022-09-09T18:38:41;23.47;;;17.60;;
21751;SDS011;11038;50.940;20.564;2022-09-09T18:40:19;26.97;;;18.97;;
21751;SDS011;11038;50.940;20.564;2022-09-09T18:41:59;26.17;;;17.43;;
21751;SDS011;11038;50.940;20.564;2022-09-09T18:43:37;26.20;;;19.03;;
21751;SDS011;11038;50.940;20.564;2022-09-09T18:45:16;26.27;;;18.73;;
21751;SDS011;11038;50.940;20.564;2022-09-09T18:46:55;25.37;;;18.87;;
21751;SDS011;11038;50.940;20.564;2022-09-09T18:48:33;27.83;;;18.60;;
21751;SDS011;11038;50.940;20.564;2022-09-09T18:50:11;25.57;;;18.53;;
21751;SDS011;11038;50.940;20.564;2022-09-09T18:51:52;30.13;;;19.37;;
21751;SDS011;11038;50.940;20.564;2022-09-09T18:53:31;26.63;;;18.43;;
21751;SDS011;11038;50.940;20.564;2022-09-09T18:55:10;29.43;;;19.10;;
21751;SDS011;11038;50.940;20.564;2022-09-09T18:56:48;28.00;;;19.60;;
21751;SDS011;11038;50.940;20.564;2022-09-09T18:58:28;27.77;;;18.53;;
21751;SDS011;11038;50.940;20.564;2022-09-09T19:00:09;25.27;;;18.40;;
21751;SDS011;11038;50.940;20.564;2022-09-09T19:01:48;29.20;;;18.70;;
21751;SDS011;11038;50.940;20.564;2022-09-09T19:03:29;26.03;;;18.73;;
21751;SDS011;11038;50.940;20.564;2022-09-09T19:05:10;27.30;;;18.73;;
21751;SDS011;11038;50.940;20.564;2022-09-09T19:06:48;24.80;;;18.30;;
21751;SDS011;11038;50.940;20.564;2022-09-09T19:08:36;26.63;;;19.40;;
21751;SDS011;11038;50.940;20.564;2022-09-09T19:10:17;30.00;;;19.73;;
21751;SDS011;11038;50.940;20.564;2022-09-09T19:11:56;26.10;;;18.67;;
21751;SDS011;11038;50.940;20.564;2022-09-09T19:13:36;28.33;;;18.60;;
21751;SDS011;11038;50.940;20.564;2022-09-09T19:15:15;27.20;;;18.53;;
21751;SDS011;11038;50.940;20.564;2022-09-09T19:16:54;28.17;;;19.37;;
21751;SDS011;11038;50.940;20.564;2022-09-09T19:18:33;26.37;;;19.33;;
21751;SDS011;11038;50.940;20.564;2022-09-09T19:20:13;28.47;;;19.63;;
21751;SDS011;11038;50.940;20.564;2022-09-09T19:21:53;27.57;;;19.03;;
21751;SDS011;11038;50.940;20.564;2022-09-09T19:23:32;28.63;;;20.40;;
21751;SDS011;11038;50.940;20.564;2022-09-09T19:25:11;27.90;;;18.63;;
21751;SDS011;11038;50.940;20.564;2022-09-09T19:26:52;25.07;;;17.90;;
21751;SDS011;11038;50.940;20.564;2022-09-09T19:28:35;30.03;;;20.10;;
21751;SDS011;11038;50.940;20.564;2022-09-09T19:30:13;28.47;;;19.47;;
21751;SDS011;11038;50.940;20.564;2022-09-09T19:31:53;27.77;;;20.53;;
21751;SDS011;11038;50.940;20.564;2022-09-09T19:33:55;28.73;;;21.03;;
21751;SDS011;11038;50.940;20.564;2022-09-09T19:35:33;32.33;;;22.20;;
21751;SDS011;11038;50.940;20.564;2022-09-09T19:37:12;31.20;;;21.77;;
21751;SDS011;11038;50.940;20.564;2022-09-09T19:38:52;35.10;;;22.37;;
21751;SDS011;11038;50.940;20.564;2022-09-09T19:40:33;33.13;;;22.40;;
21751;SDS011;11038;50.940;20.564;2022-09-09T19:42:12;29.93;;;21.83;;
21751;SDS011;11038;50.940;20.564;2022-09-09T19:43:52;32.13;;;22.23;;
21751;SDS011;11038;50.940;20.564;2022-09-09T19:45:35;32.57;;;23.47;;
21751;SDS011;11038;50.940;20.564;2022-09-09T19:47:14;32.20;;;21.27;;
21751;SDS011;11038;50.940;20.564;2022-09-09T19:48:53;37.97;;;24.80;;
21751;SDS011;11038;50.940;20.564;2022-09-09T19:50:34;35.37;;;24.43;;
21751;SDS011;11038;50.940;20.564;2022-09-09T19:52:14;38.37;;;26.53;;
21751;SDS011;11038;50.940;20.564;2022-09-09T19:53:53;38.00;;;25.10;;
21751;SDS011;11038;50.940;20.564;2022-09-09T19:55:38;38.53;;;24.67;;
21751;SDS011;11038;50.940;20.564;2022-09-09T19:57:17;35.97;;;25.30;;
21751;SDS011;11038;50.940;20.564;2022-09-09T19:58:56;36.20;;;23.43;;
21751;SDS011;11038;50.940;20.564;2022-09-09T20:00:36;35.13;;;24.70;;
21751;SDS011;11038;50.940;20.564;2022-09-09T20:02:14;37.20;;;25.13;;
21751;SDS011;11038;50.940;20.564;2022-09-09T20:03:53;34.67;;;24.73;;
21751;SDS011;11038;50.940;20.564;2022-09-09T20:05:35;37.43;;;25.23;;
21751;SDS011;11038;50.940;20.564;2022-09-09T20:07:13;38.90;;;25.83;;
21751;SDS011;11038;50.940;20.564;2022-09-09T20:08:52;37.37;;;24.10;;
21751;SDS011;11038;50.940;20.564;2022-09-09T20:10:32;39.80;;;25.90;;
21751;SDS011;11038;50.940;20.564;2022-09-09T20:12:11;39.00;;;25.03;;
21751;SDS011;11038;50.940;20.564;2022-09-09T20:13:50;41.17;;;27.70;;
21751;SDS011;11038;50.940;20.564;2022-09-09T20:15:29;40.30;;;27.07;;
21751;SDS011;11038;50.940;20.564;2022-09-09T20:17:08;37.80;;;26.57;;
21751;SDS011;11038;50.940;20.564;2022-09-09T20:18:47;41.63;;;27.80;;
21751;SDS011;11038;50.940;20.564;2022-09-09T20:20:29;43.00;;;25.00;;
21751;SDS011;11038;50.940;20.564;2022-09-09T20:22:07;39.50;;;26.10;;
21751;SDS011;11038;50.940;20.564;2022-09-09T20:23:46;42.10;;;27.90;;
21751;SDS011;11038;50.940;20.564;2022-09-09T20:25:26;51.30;;;32.97;;
21751;SDS011;11038;50.940;20.564;2022-09-09T20:27:04;45.17;;;28.40;;
21751;SDS011;11038;50.940;20.564;2022-09-09T20:28:43;43.27;;;26.03;;
21751;SDS011;11038;50.940;20.564;2022-09-09T20:30:26;49.37;;;28.93;;
21751;SDS011;11038;50.940;20.564;2022-09-09T20:32:06;45.07;;;27.13;;
21751;SDS011;11038;50.940;20.564;2022-09-09T20:33:44;47.63;;;26.50;;
21751;SDS011;11038;50.940;20.564;2022-09-09T20:35:24;49.30;;;30.23;;
21751;SDS011;11038;50.940;20.564;2022-09-09T20:37:04;51.40;;;31.80;;